createdAt,value
2022-10-21T00:00:58.902Z,18.10
2022-10-21T00:03:27.910Z,17.90
2022-10-21T00:05:56.227Z,17.90
2022-10-21T00:08:25.147Z,17.80
2022-10-21T00:10:53.748Z,17.70
2022-10-21T00:13:23.978Z,17.60
2022-10-21T00:16:03.521Z,17.50
2022-10-21T00:18:33.141Z,17.60
2022-10-21T00:21:01.200Z,17.60
2022-10-21T00:23:29.164Z,17.60
2022-10-21T00:25:58.497Z,17.70
2022-10-21T00:28:28.642Z,17.70
2022-10-21T00:30:58.164Z,17.70
2022-10-21T00:33:27.495Z,17.70
2022-10-21T00:35:57.472Z,17.70
2022-10-21T00:38:25.919Z,17.80
2022-10-21T00:40:53.948Z,17.90
2022-10-21T00:43:22.268Z,17.90
2022-10-21T00:45:55.225Z,17.80
2022-10-21T00:48:30.817Z,17.60
2022-10-21T00:51:03.698Z,17.60
2022-10-21T00:53:32.980Z,17.70
2022-10-21T00:56:06.649Z,17.60
2022-10-21T00:58:35.719Z,17.60
2022-10-21T01:01:07.537Z,17.30
2022-10-21T01:03:36.606Z,17.10
2022-10-21T01:06:09.142Z,17.00
2022-10-21T01:08:38.103Z,17.20
2022-10-21T01:11:08.161Z,17.10
2022-10-21T01:13:44.548Z,17.00
2022-10-21T01:16:21.532Z,17.10
2022-10-21T01:18:58.645Z,17.20
2022-10-21T01:21:33.510Z,16.90
2022-10-21T01:24:37.093Z,17.10
2022-10-21T01:27:25.356Z,17.00
2022-10-21T01:30:11.278Z,17.00
2022-10-21T01:33:30.012Z,17.20
2022-10-21T01:36:06.739Z,17.20
2022-10-21T01:38:40.141Z,17.20
2022-10-21T01:41:14.788Z,17.00
2022-10-21T01:43:50.331Z,17.20
2022-10-21T01:46:21.798Z,17.10
2022-10-21T01:48:55.807Z,17.20
2022-10-21T01:54:02.872Z,17.20
2022-10-21T01:56:31.873Z,17.10
2022-10-21T01:59:01.676Z,17.30
2022-10-21T02:01:30.449Z,17.50
2022-10-21T02:04:03.535Z,17.60
2022-10-21T02:06:31.539Z,17.60
2022-10-21T02:08:59.576Z,17.60
2022-10-21T02:11:29.643Z,17.70
2022-10-21T02:14:02.833Z,17.60
2022-10-21T02:16:34.397Z,17.60
2022-10-21T02:19:03.692Z,17.50
2022-10-21T02:21:36.080Z,17.50
2022-10-21T02:24:10.216Z,17.40
2022-10-21T02:26:38.245Z,17.50
2022-10-21T02:29:06.336Z,17.50
2022-10-21T02:31:51.353Z,17.40
2022-10-21T02:34:31.279Z,17.40
2022-10-21T02:37:08.889Z,17.50
2022-10-21T02:39:41.167Z,17.60
2022-10-21T02:42:14.525Z,17.60
2022-10-21T02:44:42.457Z,17.60
2022-10-21T02:49:40.692Z,17.60
2022-10-21T02:52:08.625Z,17.30
2022-10-21T02:54:36.595Z,16.90
2022-10-21T02:57:04.644Z,17.00
2022-10-21T02:59:32.572Z,16.80
2022-10-21T03:02:00.604Z,17.10
2022-10-21T03:04:28.561Z,17.00
2022-10-21T03:06:57.833Z,17.10
2022-10-21T03:09:25.808Z,17.10
2022-10-21T03:11:53.702Z,17.10
2022-10-21T03:14:21.643Z,17.10
2022-10-21T03:16:49.581Z,17.20
2022-10-21T03:19:17.477Z,17.10
2022-10-21T03:21:45.378Z,16.90
2022-10-21T03:24:19.889Z,16.90
2022-10-21T03:26:56.209Z,17.10
2022-10-21T03:29:24.467Z,17.00
2022-10-21T03:31:52.398Z,17.10
2022-10-21T03:34:20.332Z,17.20
2022-10-21T03:36:48.361Z,17.10
2022-10-21T03:39:17.908Z,17.10
2022-10-21T03:41:45.848Z,17.10
2022-10-21T03:44:13.751Z,17.20
2022-10-21T03:46:41.666Z,17.20
2022-10-21T03:49:18.452Z,17.10
2022-10-21T03:51:48.916Z,17.00
2022-10-21T03:54:18.323Z,17.00
2022-10-21T03:56:46.250Z,17.00
2022-10-21T03:59:14.190Z,17.10
2022-10-21T04:01:42.199Z,17.10
2022-10-21T04:04:10.264Z,16.80
2022-10-21T04:06:38.202Z,16.40
2022-10-21T04:09:06.304Z,16.20
2022-10-21T04:11:35.810Z,16.00
2022-10-21T04:14:04.091Z,16.30
2022-10-21T04:16:33.393Z,16.50
2022-10-21T04:19:01.402Z,16.20
2022-10-21T04:21:29.391Z,16.10
2022-10-21T04:23:57.324Z,16.30
2022-10-21T04:26:25.282Z,16.40
2022-10-21T04:28:54.599Z,16.30
2022-10-21T04:31:22.512Z,16.40
2022-10-21T04:33:51.868Z,16.60
2022-10-21T04:36:20.113Z,16.70
2022-10-21T04:38:48.076Z,16.80
2022-10-21T04:41:16.034Z,16.80
2022-10-21T04:43:44.129Z,16.90
2022-10-21T04:46:16.829Z,16.90
2022-10-21T04:48:44.982Z,16.90
2022-10-21T04:51:13.125Z,16.90
2022-10-21T04:53:41.085Z,16.90
2022-10-21T04:56:09.186Z,16.70
2022-10-21T04:58:37.133Z,16.80
2022-10-21T05:01:05.258Z,16.80
2022-10-21T05:03:34.636Z,16.80
2022-10-21T05:06:02.686Z,16.70
2022-10-21T05:08:30.748Z,16.70
2022-10-21T05:11:00.099Z,16.80
2022-10-21T05:13:28.326Z,16.70
2022-10-21T05:15:58.891Z,16.60
2022-10-21T05:18:26.893Z,16.60
2022-10-21T05:20:57.227Z,16.60
2022-10-21T05:23:25.949Z,16.60
2022-10-21T05:25:54.144Z,16.50
2022-10-21T05:28:22.624Z,16.20
2022-10-21T05:30:50.778Z,16.30
2022-10-21T05:33:18.733Z,15.90
2022-10-21T05:35:46.621Z,15.50
2022-10-21T05:38:15.943Z,15.60
2022-10-21T05:40:43.869Z,15.80
2022-10-21T05:43:11.806Z,16.10
2022-10-21T05:45:39.758Z,16.20
2022-10-21T05:48:07.688Z,16.30
2022-10-21T05:50:35.722Z,16.40
2022-10-21T05:53:10.265Z,16.40
2022-10-21T05:55:39.577Z,16.50
2022-10-21T05:58:07.609Z,16.50
2022-10-21T06:00:36.025Z,16.30
2022-10-21T06:03:04.017Z,16.00
2022-10-21T06:05:31.948Z,15.90
2022-10-21T06:07:59.878Z,15.90
2022-10-21T06:10:29.176Z,15.80
2022-10-21T06:12:58.631Z,15.80
2022-10-21T06:15:26.572Z,15.70
2022-10-21T06:17:54.473Z,16.00
2022-10-21T06:20:22.434Z,16.10
2022-10-21T06:22:50.331Z,16.20
2022-10-21T06:25:18.365Z,16.30
2022-10-21T06:27:46.285Z,16.10
2022-10-21T06:30:17.980Z,16.20
2022-10-21T06:32:45.989Z,16.10
2022-10-21T06:35:13.897Z,16.10
2022-10-21T06:37:41.853Z,16.20
2022-10-21T06:40:10.796Z,16.40
2022-10-21T06:42:38.737Z,16.10
2022-10-21T06:45:07.690Z,16.20
2022-10-21T06:47:37.380Z,16.10
2022-10-21T06:50:06.518Z,15.90
2022-10-21T06:52:34.474Z,15.80
2022-10-21T06:55:02.433Z,15.80
2022-10-21T06:57:30.376Z,16.00
2022-10-21T06:59:58.271Z,16.00
2022-10-21T07:02:26.437Z,16.00
2022-10-21T07:04:57.726Z,16.20
2022-10-21T07:07:25.841Z,16.20
2022-10-21T07:09:57.612Z,16.30
2022-10-21T07:12:26.237Z,16.40
2022-10-21T07:14:54.755Z,16.50
2022-10-21T07:17:22.666Z,16.50
2022-10-21T07:19:50.711Z,16.30
2022-10-21T07:22:20.057Z,16.50
2022-10-21T07:24:47.984Z,16.60
2022-10-21T07:27:15.978Z,16.60
2022-10-21T07:29:44.014Z,16.60
2022-10-21T07:32:11.977Z,16.70
2022-10-21T07:34:39.937Z,16.80
2022-10-21T07:37:07.928Z,16.90
2022-10-21T07:39:37.186Z,17.00
2022-10-21T07:42:05.149Z,16.90
2022-10-21T07:44:33.086Z,16.90
2022-10-21T07:47:01.131Z,16.90
2022-10-21T07:49:30.059Z,17.00
2022-10-21T07:51:57.988Z,17.10
2022-10-21T07:54:25.937Z,17.20
2022-10-21T07:56:55.379Z,17.00
2022-10-21T07:59:24.159Z,17.10
2022-10-21T08:01:53.079Z,17.10
2022-10-21T08:04:24.586Z,17.20
2022-10-21T08:06:52.526Z,17.50
2022-10-21T08:09:20.519Z,17.50
2022-10-21T08:11:48.654Z,17.50
2022-10-21T08:14:17.988Z,17.50
2022-10-21T08:16:45.949Z,17.50
2022-10-21T08:19:19.851Z,17.50
2022-10-21T08:21:48.146Z,17.70
2022-10-21T08:24:16.092Z,17.70
2022-10-21T08:26:44.182Z,17.70
2022-10-21T08:29:12.117Z,17.70
2022-10-21T08:31:41.784Z,17.70
2022-10-21T08:34:10.005Z,17.90
2022-10-21T08:36:38.851Z,17.70
2022-10-21T08:39:07.126Z,17.80
2022-10-21T08:41:54.263Z,18.00
2022-10-21T08:44:34.960Z,18.00
2022-10-21T08:47:12.334Z,18.10
2022-10-21T08:50:05.393Z,18.20
2022-10-21T08:52:40.334Z,18.30
2022-10-21T08:55:15.177Z,18.40
2022-10-21T08:57:43.298Z,18.40
2022-10-21T09:00:20.218Z,18.50
2022-10-21T09:03:08.402Z,18.60
2022-10-21T09:05:56.262Z,18.60
2022-10-21T09:08:32.545Z,18.50
2022-10-21T09:11:03.720Z,18.60
2022-10-21T09:13:47.254Z,18.60
2022-10-21T09:16:20.614Z,18.80
2022-10-21T09:19:01.237Z,18.90
2022-10-21T09:21:40.694Z,19.00
2022-10-21T09:24:12.800Z,19.00
2022-10-21T09:26:42.538Z,19.10
2022-10-21T09:29:26.824Z,19.10
2022-10-21T09:32:02.562Z,18.70
2022-10-21T09:34:44.922Z,18.80
2022-10-21T09:37:22.048Z,18.90
2022-10-21T09:39:55.099Z,19.10
2022-10-21T09:42:45.876Z,19.20
2022-10-21T09:45:23.150Z,19.10
2022-10-21T09:47:57.315Z,19.10
2022-10-21T09:50:27.559Z,19.10
2022-10-21T09:53:01.537Z,19.30
2022-10-21T09:55:31.532Z,19.40
2022-10-21T09:58:01.777Z,19.50
2022-10-21T10:00:44.694Z,19.50
2022-10-21T10:03:13.355Z,19.70
2022-10-21T10:05:47.989Z,19.70
2022-10-21T10:08:32.991Z,19.80
2022-10-21T10:11:11.818Z,19.90
2022-10-21T10:13:45.121Z,20.00
2022-10-21T10:16:22.253Z,19.90
2022-10-21T10:18:51.764Z,20.00
2022-10-21T10:21:22.146Z,19.90
2022-10-21T10:23:51.555Z,19.90
2022-10-21T10:26:23.677Z,19.90
2022-10-21T10:28:55.069Z,20.00
2022-10-21T10:31:29.110Z,20.00
2022-10-21T10:33:59.913Z,20.00
2022-10-21T10:36:33.379Z,20.10
2022-10-21T10:39:04.132Z,20.20
2022-10-21T10:41:39.211Z,20.10
2022-10-21T10:44:16.851Z,20.20
2022-10-21T10:46:45.232Z,20.20
2022-10-21T10:49:22.613Z,20.30
2022-10-21T10:52:29.294Z,20.30
2022-10-21T10:55:19.218Z,20.40
2022-10-21T10:57:59.229Z,20.40
2022-10-21T11:00:43.934Z,20.40
2022-10-21T11:03:15.790Z,20.40
2022-10-21T11:05:47.163Z,20.50
2022-10-21T11:08:20.613Z,20.60
2022-10-21T11:10:51.281Z,20.60
2022-10-21T11:13:21.600Z,20.70
2022-10-21T11:16:02.019Z,20.70
2022-10-21T11:18:35.321Z,20.70
2022-10-21T11:21:12.022Z,20.70
2022-10-21T11:24:06.656Z,20.70
2022-10-21T11:26:45.912Z,20.80
2022-10-21T11:29:29.122Z,20.80
2022-10-21T11:32:17.315Z,20.90
2022-10-21T11:35:00.346Z,20.90
2022-10-21T11:37:45.662Z,20.80
2022-10-21T11:40:23.859Z,20.70
2022-10-21T11:42:53.505Z,20.60
2022-10-21T11:45:49.419Z,20.60
2022-10-21T11:48:39.747Z,20.60
2022-10-21T11:51:19.362Z,20.50
2022-10-21T11:56:49.570Z,20.40
2022-10-21T11:59:29.895Z,20.40
2022-10-21T12:02:10.245Z,20.40
2022-10-21T12:04:45.464Z,20.30
2022-10-21T12:07:35.663Z,20.40
2022-10-21T12:10:11.754Z,20.40
2022-10-21T12:12:46.224Z,20.40
2022-10-21T12:15:19.709Z,20.30
2022-10-21T12:17:49.578Z,20.20
2022-10-21T12:20:23.701Z,20.20
2022-10-21T12:22:55.820Z,20.20
2022-10-21T12:25:29.696Z,20.20
2022-10-21T12:28:06.563Z,20.20
2022-10-21T12:30:40.587Z,20.30
2022-10-21T12:33:18.989Z,20.30
2022-10-21T12:35:52.887Z,20.30
2022-10-21T12:38:46.038Z,20.30
2022-10-21T12:41:38.784Z,20.30
2022-10-21T12:44:21.068Z,20.20
2022-10-21T12:46:52.383Z,20.20
2022-10-21T12:49:31.949Z,20.30
2022-10-21T12:52:08.962Z,20.30
2022-10-21T12:54:44.082Z,20.50
2022-10-21T12:57:23.509Z,20.40
2022-10-21T12:59:53.018Z,20.30
2022-10-21T13:02:25.000Z,20.30
2022-10-21T13:04:55.161Z,20.40
2022-10-21T13:07:38.505Z,20.40
2022-10-21T13:10:26.759Z,20.40
2022-10-21T13:13:33.468Z,20.40
2022-10-21T13:16:38.153Z,20.30
2022-10-21T13:19:32.894Z,20.40
2022-10-21T13:22:12.233Z,20.30
2022-10-21T13:24:40.926Z,20.30
2022-10-21T13:27:26.501Z,20.40
2022-10-21T13:29:55.121Z,20.30
2022-10-21T13:32:34.315Z,20.30
2022-10-21T13:35:25.185Z,20.30
2022-10-21T13:37:57.080Z,20.30
2022-10-21T13:40:30.545Z,20.30
2022-10-21T13:43:01.697Z,20.20
2022-10-21T13:45:32.223Z,20.20
2022-10-21T13:48:04.036Z,20.20
2022-10-21T13:50:35.404Z,20.10
2022-10-21T13:53:06.704Z,20.10
2022-10-21T13:55:34.866Z,20.10
2022-10-21T13:58:02.830Z,20.10
2022-10-21T14:00:32.908Z,20.10
2022-10-21T14:03:05.814Z,20.00
2022-10-21T14:05:37.987Z,20.10
2022-10-21T14:08:14.777Z,20.10
2022-10-21T14:10:46.857Z,20.10
2022-10-21T14:13:16.472Z,20.10
2022-10-21T14:15:46.312Z,20.10
2022-10-21T14:18:29.399Z,20.00
2022-10-21T14:21:00.542Z,20.00
2022-10-21T14:23:30.311Z,20.00
2022-10-21T14:26:05.584Z,20.00
2022-10-21T14:28:34.312Z,20.00
2022-10-21T14:31:03.110Z,20.10
2022-10-21T14:33:32.547Z,20.00
2022-10-21T14:36:09.370Z,20.10
2022-10-21T14:38:41.008Z,20.10
2022-10-21T14:41:14.888Z,20.10
2022-10-21T14:43:45.356Z,20.10
2022-10-21T14:46:13.592Z,20.00
2022-10-21T14:48:49.612Z,20.10
2022-10-21T14:51:21.369Z,20.10
2022-10-21T14:53:54.835Z,20.10
2022-10-21T14:56:29.017Z,20.00
2022-10-21T14:58:59.746Z,19.90
2022-10-21T15:01:28.097Z,19.90
2022-10-21T15:03:59.879Z,20.00
2022-10-21T15:06:29.461Z,20.00
2022-10-21T15:09:03.488Z,20.00
2022-10-21T15:11:39.724Z,20.00
2022-10-21T15:14:28.904Z,20.00
2022-10-21T15:16:59.008Z,20.00
2022-10-21T15:19:30.298Z,20.00
2022-10-21T15:22:01.156Z,20.00
2022-10-21T15:24:37.996Z,20.00
2022-10-21T15:27:06.412Z,19.90
2022-10-21T15:29:37.320Z,19.90
2022-10-21T15:32:06.866Z,20.00
2022-10-21T15:34:36.244Z,19.90
2022-10-21T15:37:04.342Z,19.90
2022-10-21T15:39:32.295Z,19.90
2022-10-21T15:42:00.953Z,19.80
2022-10-21T15:44:30.945Z,19.90
2022-10-21T15:47:02.488Z,19.80
2022-10-21T15:49:34.153Z,19.90
2022-10-21T15:52:03.646Z,19.90
2022-10-21T15:54:31.718Z,19.90
2022-10-21T15:57:01.746Z,19.80
2022-10-21T15:59:31.248Z,19.80
2022-10-21T16:02:00.178Z,19.80
2022-10-21T16:04:28.577Z,19.70
2022-10-21T16:06:57.162Z,19.70
2022-10-21T16:09:28.334Z,19.60
2022-10-21T16:12:00.436Z,19.50
2022-10-21T16:14:30.865Z,19.50
2022-10-21T16:16:59.967Z,19.50
2022-10-21T16:19:28.025Z,19.60
2022-10-21T16:21:56.096Z,19.50
2022-10-21T16:24:24.080Z,19.50
2022-10-21T16:26:53.455Z,19.50
2022-10-21T16:29:22.808Z,19.50
2022-10-21T16:31:51.830Z,19.50
2022-10-21T16:34:19.975Z,19.50
2022-10-21T16:36:47.916Z,19.60
2022-10-21T16:39:17.781Z,19.50
2022-10-21T16:41:45.757Z,19.50
2022-10-21T16:44:15.436Z,19.50
2022-10-21T16:46:49.884Z,19.50
2022-10-21T16:49:22.394Z,19.40
2022-10-21T16:51:52.376Z,19.30
2022-10-21T16:56:59.034Z,19.10
2022-10-21T16:59:29.599Z,19.00
2022-10-21T17:01:59.090Z,19.00
2022-10-21T17:04:27.681Z,19.00
2022-10-21T17:06:57.675Z,19.10
2022-10-21T17:09:28.546Z,18.90
2022-10-21T17:11:56.525Z,18.90
2022-10-21T17:14:24.508Z,18.90
2022-10-21T17:16:53.879Z,19.00
2022-10-21T17:19:21.825Z,19.10
2022-10-21T17:21:49.908Z,19.20
2022-10-21T17:24:19.038Z,19.20
2022-10-21T17:26:47.049Z,19.30
2022-10-21T17:29:15.571Z,19.30
2022-10-21T17:31:43.995Z,19.20
2022-10-21T17:34:27.149Z,19.30
2022-10-21T17:36:55.125Z,19.10
2022-10-21T17:39:23.291Z,19.10
2022-10-21T17:41:51.314Z,19.20
2022-10-21T17:44:19.731Z,19.20
2022-10-21T17:46:49.476Z,19.20
2022-10-21T17:49:19.024Z,19.20
2022-10-21T17:51:47.008Z,19.20
2022-10-21T17:54:14.927Z,19.20
2022-10-21T17:56:42.960Z,19.10
2022-10-21T17:59:12.056Z,19.10
2022-10-21T18:01:40.131Z,19.10
2022-10-21T18:04:08.110Z,19.10
2022-10-21T18:06:37.733Z,19.20
2022-10-21T18:09:06.730Z,19.30
2022-10-21T18:11:35.190Z,19.30
2022-10-21T18:14:03.190Z,19.20
2022-10-21T18:16:31.378Z,19.20
2022-10-21T18:19:02.019Z,19.00
2022-10-21T18:21:31.717Z,19.10
2022-10-21T18:24:01.429Z,18.80
2022-10-21T18:26:31.417Z,18.70
2022-10-21T18:29:01.707Z,18.60
2022-10-21T18:31:31.708Z,18.70
2022-10-21T18:34:01.652Z,18.80
2022-10-21T18:36:29.605Z,18.70
2022-10-21T18:39:00.380Z,18.70
2022-10-21T18:41:28.766Z,18.90
2022-10-21T18:44:00.141Z,18.90
2022-10-21T18:46:28.989Z,19.00
2022-10-21T18:48:57.197Z,19.00
2022-10-21T18:51:26.260Z,19.10
2022-10-21T18:53:54.521Z,19.20
2022-10-21T18:56:25.477Z,19.20
2022-10-21T18:58:54.350Z,19.20
2022-10-21T19:01:23.685Z,19.30
2022-10-21T19:03:53.919Z,19.30
2022-10-21T19:06:33.229Z,19.00
2022-10-21T19:09:02.140Z,19.00
2022-10-21T19:11:31.833Z,19.10
2022-10-21T19:13:59.882Z,19.20
2022-10-21T19:16:28.039Z,19.00
2022-10-21T19:18:56.124Z,19.00
2022-10-21T19:21:25.230Z,18.70
2022-10-21T19:23:53.439Z,18.70
2022-10-21T19:26:23.101Z,18.60
2022-10-21T19:28:52.913Z,18.60
2022-10-21T19:31:21.603Z,18.60
2022-10-21T19:33:52.207Z,18.80
2022-10-21T19:36:20.098Z,18.60
2022-10-21T19:38:48.000Z,18.60
2022-10-21T19:41:18.441Z,18.50
2022-10-21T19:43:46.713Z,18.60
2022-10-21T19:46:22.311Z,18.60
2022-10-21T19:48:52.850Z,18.70
2022-10-21T19:51:23.017Z,18.60
2022-10-21T19:53:52.082Z,18.60
2022-10-21T19:56:25.540Z,18.60
2022-10-21T19:58:56.217Z,18.70
2022-10-21T20:01:27.602Z,18.80
2022-10-21T20:03:56.176Z,18.90
2022-10-21T20:06:26.722Z,18.80
2022-10-21T20:08:55.602Z,18.70
2022-10-21T20:11:24.357Z,18.70
2022-10-21T20:13:53.123Z,18.80
2022-10-21T20:16:23.274Z,18.80
2022-10-21T20:18:52.757Z,18.60
2022-10-21T20:21:20.811Z,18.40
2022-10-21T20:23:49.640Z,18.50
2022-10-21T20:26:17.881Z,18.70
2022-10-21T20:28:46.112Z,18.50
2022-10-21T20:31:15.779Z,18.50
2022-10-21T20:33:45.779Z,18.60
2022-10-21T20:36:18.113Z,18.40
2022-10-21T20:38:46.701Z,18.40
2022-10-21T20:41:17.531Z,18.50
2022-10-21T20:43:45.555Z,18.70
2022-10-21T20:46:14.601Z,18.70
2022-10-21T20:48:44.235Z,18.70
2022-10-21T20:51:14.225Z,18.70
2022-10-21T20:56:19.530Z,18.80
2022-10-21T20:58:47.683Z,18.70
2022-10-21T21:01:19.065Z,18.90
2022-10-21T21:03:49.826Z,18.90
2022-10-21T21:06:18.397Z,19.00
2022-10-21T21:09:14.626Z,18.90
2022-10-21T21:11:36.237Z,19.00
2022-10-21T21:14:04.321Z,19.00
2022-10-21T21:16:32.546Z,19.00
2022-10-21T21:19:03.212Z,19.00
2022-10-21T21:21:33.341Z,19.00
2022-10-21T21:24:03.607Z,18.90
2022-10-21T21:26:34.246Z,18.90
2022-10-21T21:29:06.071Z,18.80
2022-10-21T21:31:35.876Z,18.70
2022-10-21T21:34:04.276Z,18.70
2022-10-21T21:36:32.574Z,18.80
2022-10-21T21:39:01.927Z,18.80
2022-10-21T21:41:29.964Z,18.80
2022-10-21T21:43:58.342Z,18.90
2022-10-21T21:46:26.762Z,18.90
2022-10-21T21:48:59.563Z,19.00
2022-10-21T21:51:32.144Z,19.10
2022-10-21T21:54:00.691Z,19.20
2022-10-21T21:56:30.084Z,19.10
2022-10-21T21:58:58.595Z,19.20
2022-10-21T22:01:28.692Z,19.20
2022-10-21T22:03:57.560Z,19.20
2022-10-21T22:06:28.200Z,19.10
2022-10-21T22:08:56.673Z,19.00
2022-10-21T22:11:27.036Z,18.90
2022-10-21T22:13:56.420Z,19.00
2022-10-21T22:16:27.363Z,18.90
2022-10-21T22:18:55.808Z,18.90
2022-10-21T22:21:24.627Z,18.60
2022-10-21T22:23:53.185Z,18.50
2022-10-21T22:26:23.120Z,18.70
2022-10-21T22:28:51.102Z,18.70
2022-10-21T22:31:27.179Z,18.90
2022-10-21T22:33:58.237Z,19.00
2022-10-21T22:36:26.986Z,19.00
2022-10-21T22:38:54.945Z,19.00
2022-10-21T22:41:23.063Z,19.00
2022-10-21T22:43:51.046Z,19.00
2022-10-21T22:46:32.948Z,19.10
2022-10-21T22:49:02.339Z,19.00
2022-10-21T22:51:30.306Z,19.00
2022-10-21T22:53:58.324Z,19.00
2022-10-21T22:56:26.714Z,19.00
2022-10-21T22:58:54.722Z,19.10
2022-10-21T23:01:26.626Z,19.10
2022-10-21T23:03:54.555Z,19.10
2022-10-21T23:06:22.781Z,19.10
2022-10-21T23:08:50.778Z,19.10
2022-10-21T23:11:18.730Z,19.00
2022-10-21T23:13:56.397Z,19.00
2022-10-21T23:16:32.420Z,19.00
2022-10-21T23:19:00.886Z,19.00
2022-10-21T23:21:29.342Z,19.00
2022-10-21T23:23:57.359Z,19.00
2022-10-21T23:26:25.332Z,19.10
2022-10-21T23:28:53.264Z,19.10
2022-10-21T23:31:21.244Z,19.20
2022-10-21T23:33:50.501Z,19.00
2022-10-21T23:36:18.415Z,19.10
2022-10-21T23:38:46.330Z,19.10
2022-10-21T23:41:14.709Z,19.10
2022-10-21T23:43:42.678Z,19.10
2022-10-21T23:46:10.631Z,19.10
2022-10-21T23:48:38.558Z,19.10
2022-10-21T23:51:07.933Z,18.90
2022-10-21T23:53:35.817Z,18.90
2022-10-21T23:56:03.920Z,18.90
2022-10-21T23:58:32.238Z,19.00
